Reno, Minnesota
Current Conditions -  °F | °C
As of 9:53 AM on Friday 28 Nov 2014 (Local Time) from KLSE Reporting Station
Clear Clear  
Wind Chill: 10°   Ceiling: Unl
Heat Index: 21°   Visibility: 10mi
Dew Point: 10°   Wind: 10mph
Humidity: 63%   Direction: 150°SSE
Pressure: 30.05"   Gusts: NA
Location:  43.6451°N, 91.3164°W
Report Text: KLSE 281553Z 15009KT 10SM CLR M06/M12 A3005 RMK AO2 SLP197 T10611122
Loading
Personal Weather Stations






























Interactive Weather Map New forecast layout! Learn more

10-Day Weather Forecast

Advertisements
Track Severe Weather on mobile